createdAt,value
2023-01-18T00:04:17.932Z,97801.31
2023-01-18T00:09:19.401Z,97797.53
2023-01-18T00:14:20.852Z,97803.13
2023-01-18T00:19:22.347Z,97799.72
2023-01-18T00:24:23.999Z,97798.19
2023-01-18T00:29:25.467Z,97790.50
2023-01-18T00:34:26.924Z,97798.47
2023-01-18T00:39:28.411Z,97796.56
2023-01-18T00:44:29.945Z,97794.38
2023-01-18T00:49:31.553Z,97790.53
2023-01-18T00:54:33.045Z,97792.72
2023-01-18T00:59:34.472Z,97790.66
2023-01-18T01:04:36.041Z,97797.34
2023-01-18T01:09:37.462Z,97797.78
2023-01-18T01:14:42.116Z,97796.00
2023-01-18T01:19:43.561Z,97808.34
2023-01-18T01:24:45.065Z,97818.06
2023-01-18T01:29:46.691Z,97820.53
2023-01-18T01:34:48.121Z,97828.59
2023-01-18T01:39:49.559Z,97839.31
2023-01-18T01:44:51.501Z,97850.94
2023-01-18T01:49:58.444Z,97854.63
2023-01-18T01:55:08.071Z,97863.97
2023-01-18T02:00:21.758Z,97862.06
2023-01-18T02:05:24.083Z,97864.53
2023-01-18T02:10:25.672Z,97873.97
2023-01-18T02:15:36.584Z,97875.22
2023-01-18T02:21:08.728Z,97873.84
2023-01-18T02:26:35.123Z,97883.44
2023-01-18T02:31:45.940Z,97892.06
2023-01-18T02:37:02.669Z,97895.50
2023-01-18T02:42:22.455Z,97894.38
2023-01-18T02:47:26.265Z,97900.03
2023-01-18T02:52:54.235Z,97899.59
2023-01-18T02:58:04.739Z,97908.09
2023-01-18T03:03:09.501Z,97915.78
2023-01-18T03:08:34.246Z,97918.53
2023-01-18T03:13:47.390Z,97924.16
2023-01-18T03:18:54.906Z,97938.41
2023-01-18T03:23:58.896Z,97936.34
2023-01-18T03:29:01.080Z,97942.66
2023-01-18T03:34:22.804Z,97946.75
2023-01-18T03:39:30.076Z,97946.88
2023-01-18T03:44:38.389Z,97957.56
2023-01-18T03:49:39.928Z,97969.72
2023-01-18T03:55:09.914Z,97980.50
2023-01-18T04:00:12.714Z,97989.41
2023-01-18T04:05:14.618Z,97999.69
2023-01-18T04:10:17.722Z,98009.25
2023-01-18T04:15:19.156Z,98012.53
2023-01-18T04:20:20.618Z,98020.59
2023-01-18T04:25:22.181Z,98026.38
2023-01-18T04:30:23.682Z,98021.56
2023-01-18T04:35:25.209Z,98028.00
2023-01-18T04:40:26.682Z,98037.44
2023-01-18T04:45:28.211Z,98036.22
2023-01-18T04:50:29.840Z,98046.66
2023-01-18T04:55:31.399Z,98038.19
2023-01-18T05:00:32.978Z,98051.56
2023-01-18T05:05:34.856Z,98068.53
2023-01-18T05:10:36.322Z,98078.50
2023-01-18T05:15:37.890Z,98083.34
2023-01-18T05:20:39.298Z,98087.00
2023-01-18T05:25:40.719Z,98098.81
2023-01-18T05:30:43.797Z,98111.38
2023-01-18T05:35:52.189Z,98118.09
2023-01-18T05:40:54.896Z,98130.16
2023-01-18T05:45:56.920Z,98128.00
2023-01-18T05:50:58.576Z,98145.44
2023-01-18T05:56:02.578Z,98151.34
2023-01-18T06:01:04.418Z,98155.00
2023-01-18T06:06:06.391Z,98163.59
2023-01-18T06:11:07.964Z,98165.50
2023-01-18T06:16:09.533Z,98168.34
2023-01-18T06:21:11.288Z,98182.31
2023-01-18T06:26:12.948Z,98192.84
2023-01-18T06:31:14.502Z,98200.25
2023-01-18T06:36:16.137Z,98206.91
2023-01-18T06:41:17.715Z,98206.00
2023-01-18T06:46:19.703Z,98219.22
2023-01-18T06:51:21.236Z,98225.84
2023-01-18T06:56:22.760Z,98240.22
2023-01-18T07:01:27.625Z,98251.44
2023-01-18T07:06:29.184Z,98258.09
2023-01-18T07:11:31.208Z,98269.88
2023-01-18T07:16:32.776Z,98285.00
2023-01-18T07:21:34.230Z,98289.97
2023-01-18T07:26:35.713Z,98293.03
2023-01-18T07:31:39.940Z,98298.94
2023-01-18T07:36:41.471Z,98309.94
2023-01-18T07:41:42.953Z,98323.28
2023-01-18T07:46:44.436Z,98336.63
2023-01-18T07:51:46.097Z,98341.47
2023-01-18T07:56:47.631Z,98354.94
2023-01-18T08:01:49.176Z,98361.94
2023-01-18T08:06:51.235Z,98377.25
2023-01-18T08:11:52.955Z,98384.13
2023-01-18T08:16:54.410Z,98383.81
2023-01-18T08:21:55.899Z,98395.00
2023-01-18T08:26:57.392Z,98405.25
2023-01-18T08:31:59.076Z,98414.97
2023-01-18T08:37:00.531Z,98418.91
2023-01-18T08:42:02.565Z,98418.53
2023-01-18T08:47:04.151Z,98425.38
2023-01-18T08:52:05.848Z,98432.84
2023-01-18T08:57:07.340Z,98439.94
2023-01-18T09:02:12.981Z,98447.63
2023-01-18T09:07:15.494Z,98458.41
2023-01-18T09:12:17.078Z,98465.94
2023-01-18T09:17:18.770Z,98472.06
2023-01-18T09:22:21.421Z,98477.41
2023-01-18T09:27:22.893Z,98485.31
2023-01-18T09:32:24.618Z,98490.38
2023-01-18T09:37:26.070Z,98501.19
2023-01-18T09:42:35.091Z,98506.09
2023-01-18T09:47:45.481Z,98519.38
2023-01-18T09:53:07.951Z,98524.78
2023-01-18T09:58:30.891Z,98517.38
2023-01-18T10:03:42.084Z,98526.16
2023-01-18T10:08:55.606Z,98544.50
2023-01-18T10:14:21.452Z,98547.28
2023-01-18T10:19:27.363Z,98548.44
2023-01-18T10:24:37.475Z,98551.03
2023-01-18T10:29:45.641Z,98554.78
2023-01-18T10:34:51.827Z,98556.59
2023-01-18T10:39:59.601Z,98565.72
2023-01-18T10:45:01.057Z,98563.56
2023-01-18T10:50:13.881Z,98552.34
2023-01-18T10:55:17.445Z,98568.84
2023-01-18T11:00:25.778Z,98566.47
2023-01-18T11:05:32.500Z,98571.63
2023-01-18T11:10:36.526Z,98573.28
2023-01-18T11:15:38.169Z,98581.03
2023-01-18T11:20:50.449Z,98583.41
2023-01-18T11:26:04.404Z,98584.72
2023-01-18T11:31:10.272Z,98589.03
2023-01-18T11:36:13.093Z,98581.78
2023-01-18T11:41:21.597Z,98586.38
2023-01-18T11:46:54.778Z,98590.91
2023-01-18T11:52:11.102Z,98586.50
2023-01-18T11:57:15.912Z,98593.94
2023-01-18T12:02:29.415Z,98594.66
2023-01-18T12:07:49.564Z,98594.50
2023-01-18T12:13:03.840Z,98592.88
2023-01-18T12:18:42.389Z,98587.50
2023-01-18T12:24:11.813Z,98600.00
2023-01-18T12:29:38.146Z,98609.13
2023-01-18T12:34:54.622Z,98615.06
2023-01-18T12:40:27.362Z,98617.53
2023-01-18T12:45:45.984Z,98618.16
2023-01-18T12:50:50.229Z,98621.91
2023-01-18T12:55:54.987Z,98622.09
2023-01-18T13:01:03.443Z,98632.13
2023-01-18T13:06:06.483Z,98628.28
2023-01-18T13:11:22.104Z,98632.97
2023-01-18T13:16:34.844Z,98632.00
2023-01-18T13:21:47.483Z,98637.09
2023-01-18T13:26:49.334Z,98650.31
2023-01-18T13:31:52.192Z,98649.91
2023-01-18T13:37:02.459Z,98651.44
2023-01-18T13:42:20.726Z,98662.47
2023-01-18T13:47:37.643Z,98666.41
2023-01-18T13:52:39.170Z,98667.84
2023-01-18T13:57:40.647Z,98683.91
2023-01-18T14:02:42.732Z,98696.13
2023-01-18T14:07:48.018Z,98704.81
2023-01-18T14:12:54.824Z,98702.63
2023-01-18T14:17:59.191Z,98706.88
2023-01-18T14:23:34.598Z,98723.59
2023-01-18T14:29:14.842Z,98728.00
2023-01-18T14:34:45.473Z,98739.94
2023-01-18T14:39:46.945Z,98742.19
2023-01-18T14:44:58.419Z,98748.19
2023-01-18T14:50:04.849Z,98754.28
2023-01-18T14:55:06.511Z,98760.91
2023-01-18T15:00:16.317Z,98757.19
2023-01-18T15:05:20.511Z,98772.53
2023-01-18T15:10:23.979Z,98775.94
2023-01-18T15:15:32.373Z,98788.06
2023-01-18T15:20:33.900Z,98796.94
2023-01-18T15:25:35.516Z,98794.09
2023-01-18T15:30:37.156Z,98808.22
2023-01-18T15:35:38.726Z,98810.31
2023-01-18T15:41:02.813Z,98821.34
2023-01-18T15:46:09.011Z,98837.03
2023-01-18T15:51:10.637Z,98843.44
2023-01-18T15:56:17.879Z,98844.03
2023-01-18T16:01:21.900Z,98846.41
2023-01-18T16:06:23.428Z,98840.22
2023-01-18T16:11:41.131Z,98847.44
2023-01-18T16:16:42.871Z,98848.47
2023-01-18T16:21:49.400Z,98857.94
2023-01-18T16:26:51.701Z,98881.63
2023-01-18T16:32:25.273Z,98882.69
2023-01-18T16:37:27.539Z,98899.66
2023-01-18T16:42:38.046Z,98901.41
2023-01-18T16:47:40.096Z,98916.63
2023-01-18T16:52:41.566Z,98925.00
2023-01-18T16:57:43.817Z,98928.81
2023-01-18T17:02:45.872Z,98921.63
2023-01-18T17:07:47.909Z,98934.53
2023-01-18T17:12:49.475Z,98940.03
2023-01-18T17:17:50.916Z,98955.59
2023-01-18T17:22:53.180Z,98968.81
2023-01-18T17:27:56.502Z,98983.75
2023-01-18T17:32:58.506Z,98990.91
2023-01-18T17:38:11.278Z,98987.41
2023-01-18T17:43:17.293Z,98994.41
2023-01-18T17:48:23.754Z,98998.19
2023-01-18T17:53:25.498Z,99005.16
2023-01-18T17:58:27.066Z,99009.31
2023-01-18T18:03:28.630Z,99022.13
2023-01-18T18:08:30.137Z,99029.34
2023-01-18T18:13:31.600Z,99028.28
2023-01-18T18:18:33.348Z,99031.81
2023-01-18T18:23:35.527Z,99041.06
2023-01-18T18:28:37.184Z,99050.53
2023-01-18T18:33:38.576Z,99047.13
2023-01-18T18:38:40.151Z,99050.75
2023-01-18T18:43:41.613Z,99070.53
2023-01-18T18:48:43.093Z,99074.69
2023-01-18T18:53:44.557Z,99084.66
2023-01-18T18:58:47.484Z,99087.56
2023-01-18T19:03:50.135Z,99090.88
2023-01-18T19:08:51.913Z,99097.13
2023-01-18T19:13:55.805Z,99098.28
2023-01-18T19:18:57.343Z,99104.06
2023-01-18T19:23:59.054Z,99115.59
2023-01-18T19:29:00.628Z,99116.50
2023-01-18T19:34:02.057Z,99119.91
2023-01-18T19:39:07.067Z,99122.09
2023-01-18T19:44:13.642Z,99116.50
2023-01-18T19:49:15.064Z,99121.28
2023-01-18T19:54:16.514Z,99128.69
2023-01-18T19:59:18.052Z,99128.97
2023-01-18T20:04:19.843Z,99123.69
2023-01-18T20:09:35.132Z,99126.47
2023-01-18T20:14:44.119Z,99137.78
2023-01-18T20:19:45.569Z,99144.00
2023-01-18T20:24:47.032Z,99144.63
2023-01-18T20:29:48.543Z,99149.31
2023-01-18T20:34:50.022Z,99163.81
2023-01-18T20:39:51.593Z,99170.34
2023-01-18T20:44:53.160Z,99180.00
2023-01-18T20:49:55.164Z,99176.88
2023-01-18T20:54:56.834Z,99178.16
2023-01-18T20:59:58.378Z,99190.31
2023-01-18T21:05:00.017Z,99184.75
2023-01-18T21:10:01.967Z,99185.88
2023-01-18T21:15:03.805Z,99194.63
2023-01-18T21:20:09.579Z,99198.97
2023-01-18T21:25:11.072Z,99202.19
2023-01-18T21:30:13.338Z,99201.44
2023-01-18T21:35:15.199Z,99210.28
2023-01-18T21:40:16.905Z,99214.38
2023-01-18T21:45:18.429Z,99220.09
2023-01-18T21:50:19.950Z,99224.13
2023-01-18T21:55:21.695Z,99240.25
2023-01-18T22:00:23.414Z,99238.47
2023-01-18T22:05:24.886Z,99253.91
2023-01-18T22:10:26.316Z,99247.38
2023-01-18T22:15:27.835Z,99259.81
2023-01-18T22:20:30.881Z,99258.59
2023-01-18T22:25:33.290Z,99269.66
2023-01-18T22:30:34.792Z,99271.81
2023-01-18T22:35:36.681Z,99273.38
2023-01-18T22:40:38.550Z,99277.94
2023-01-18T22:45:40.028Z,99285.13
2023-01-18T22:50:41.529Z,99280.72
2023-01-18T22:55:43.015Z,99279.75
2023-01-18T23:00:46.092Z,99285.31
2023-01-18T23:05:58.280Z,99290.94
2023-01-18T23:10:59.724Z,99289.34
2023-01-18T23:16:05.590Z,99296.97
2023-01-18T23:21:06.948Z,99295.91
2023-01-18T23:26:08.543Z,99288.22
2023-01-18T23:31:15.439Z,99292.25
2023-01-18T23:36:16.956Z,99290.22
2023-01-18T23:41:18.792Z,99292.69
2023-01-18T23:46:20.242Z,99301.50
2023-01-18T23:51:21.762Z,99306.69
2023-01-18T23:56:23.329Z,99312.34
